Orbital elements of FREGAT DEB
| Launched | 17 July 2011 |
| Flight ended | – |
| Launch site | Tyuratam Missile and Space Center, Kazakhstan (Also known as Baikonur Cosmodrome) |
| Owner | Commonwealth of Independent States (former USSR) |
| NORAD ID | 47337 |
| Date fetched |
Epoch osculation |
Inc. [°] |
Ecc. | RA asc node [hr] |
Arg Peri. [°] |
Mean anom [°] |
Mean motion [rev/day] |
Abs. mag |
| Date fetched |
Epoch osculation |
Inc. [°] |
Ecc. | RA asc node [hr] |
Arg Peri. [°] |
Mean anom [°] |
Mean motion [rev/day] |
Abs. mag |
| 2026 May 05 17:57 | 2026 May 04 12:53:13 | 51.4473 | 0.13041 | 4.3588 | 109.0096 | 265.6324 | 11.58414 | – |
| 2026 May 04 17:57 | 2026 Apr 30 13:37:28 | 51.4491 | 0.12982 | 5.0489 | 101.3084 | 265.6324 | 11.58414 | – |
| 2026 May 03 17:57 | 2026 Apr 30 13:37:28 | 51.4491 | 0.12982 | 5.0489 | 101.3084 | 265.6324 | 11.58414 | – |
| 2026 May 02 17:57 | 2026 Apr 30 13:37:28 | 51.4491 | 0.12982 | 5.0489 | 101.3084 | 265.6324 | 11.58414 | – |
| 2026 May 01 17:56 | 2026 Apr 30 13:37:28 | 51.4491 | 0.12982 | 5.0489 | 101.3084 | 265.6324 | 11.58414 | – |
| 2026 Apr 30 17:56 | 2026 Apr 30 13:37:28 | 51.4491 | 0.12982 | 5.0489 | 101.3084 | 265.6324 | 11.58414 | – |
| 2026 Apr 29 17:57 | 2026 Apr 23 15:55:16 | 51.4549 | 0.12903 | 6.2482 | 87.9419 | 265.6324 | 11.58414 | – |
| 2026 Apr 28 17:56 | 2026 Apr 23 15:55:16 | 51.4549 | 0.12903 | 6.2482 | 87.9419 | 265.6324 | 11.58414 | – |
| 2026 Apr 27 17:58 | 2026 Apr 23 15:55:16 | 51.4549 | 0.12903 | 6.2482 | 87.9419 | 265.6324 | 11.58414 | – |
| 2026 Apr 26 17:58 | 2026 Apr 23 15:55:16 | 51.4549 | 0.12903 | 6.2482 | 87.9419 | 265.6324 | 11.58414 | – |
| 2026 Apr 25 17:58 | 2026 Apr 23 15:55:16 | 51.4549 | 0.12903 | 6.2482 | 87.9419 | 265.6324 | 11.58414 | – |
| 2026 Apr 24 17:59 | 2026 Apr 23 15:55:16 | 51.4549 | 0.12903 | 6.2482 | 87.9419 | 265.6324 | 11.58414 | – |
| 2026 Apr 23 17:57 | 2026 Apr 19 04:11:59 | 51.4545 | 0.12866 | 7.0273 | 79.2967 | 265.6324 | 11.58414 | – |
| 2026 Apr 22 17:57 | 2026 Apr 19 04:11:59 | 51.4545 | 0.12866 | 7.0273 | 79.2967 | 265.6324 | 11.58414 | – |
| 2026 Apr 21 17:57 | 2026 Apr 19 04:11:59 | 51.4545 | 0.12866 | 7.0273 | 79.2967 | 265.6324 | 11.58414 | – |
| 2026 Apr 20 17:57 | 2026 Apr 19 04:11:59 | 51.4545 | 0.12866 | 7.0273 | 79.2967 | 265.6324 | 11.58414 | – |
| 2026 Apr 19 17:58 | 2026 Apr 19 04:11:59 | 51.4545 | 0.12866 | 7.0273 | 79.2967 | 265.6324 | 11.58414 | – |
| 2026 Apr 18 17:56 | 2026 Apr 13 07:19:27 | 51.4521 | 0.12846 | 8.0461 | 68.0384 | 265.6324 | 11.58414 | – |
| 2026 Apr 16 17:57 | 2026 Apr 13 07:19:27 | 51.4521 | 0.12846 | 8.0461 | 68.0384 | 265.6324 | 11.58414 | – |
| 2026 Apr 14 17:57 | 2026 Apr 13 07:19:27 | 51.4521 | 0.12846 | 8.0461 | 68.0384 | 265.6324 | 11.58414 | – |
| 2026 Apr 13 17:57 | 2026 Apr 13 07:19:27 | 51.4521 | 0.12846 | 8.0461 | 68.0384 | 265.6324 | 11.58414 | – |
| 2026 Apr 12 17:57 | 2026 Apr 08 09:13:54 | 51.4478 | 0.12852 | 8.9000 | 58.6598 | 265.6324 | 11.58414 | – |
| 2026 Apr 11 17:57 | 2026 Apr 08 09:13:54 | 51.4478 | 0.12852 | 8.9000 | 58.6598 | 265.6324 | 11.58414 | – |
| 2026 Apr 10 17:58 | 2026 Apr 08 09:13:54 | 51.4478 | 0.12852 | 8.9000 | 58.6598 | 265.6324 | 11.58414 | – |
| 2026 Apr 09 18:01 | 2026 Apr 08 09:13:54 | 51.4478 | 0.12852 | 8.9000 | 58.6598 | 265.6324 | 11.58414 | – |
| 2026 Apr 08 17:57 | 2026 Apr 08 09:13:54 | 51.4478 | 0.12852 | 8.9000 | 58.6598 | 265.6324 | 11.58414 | – |